Villa del Dique, Argentina
Current Conditions -  °F | °C
As of 1:00 PM on Saturday 22 Nov 2014 (Local Time) from SACO Reporting Station
Clear Clear  
Wind Chill: 79°   Ceiling: Unl
Heat Index: 79°   Visibility: 6mi
Dew Point: 45°   Wind: 3mph
Humidity: 30%   Direction: NA
Pressure: 30.03"   Gusts: NA
Location:  32.17°S, 64.48°W
Report Text: SACO 221600Z VRB03KT CAVOK 26/07 Q1017
Loading
Personal Weather Stations






























Interactive Weather Map New forecast layout! Learn more

10-Day Weather Forecast

Advertisements
Track Severe Weather on mobile